LEST/SCQ METAR and TAF weather

Enter ICAO airport designator
Station Type Date Time Source
LEST METAR 2020/11/25 22:00 UTC NOAA

LEST 252200Z 05005KT 340V100 9999 BKN046 08/07 Q1009 TEMPO 4000 -RA


Station Type Date Time Source
LEST Decoded METAR 2020/11/25 22:00 UTC NOAA

Santiago / Labacolla, Spain (LEST) 42-54N 008-26W 367M
Nov 25, 2020 - 05:00 PM EST / 2020.11.25 2200 UTC
Wind: from the NE (050 degrees) at 6 MPH (5 KT) (direction variable):0
Visibility: greater than 7 mile(s):0
Sky conditions: mostly cloudy
Temperature: 46 F (8 C)
Dew Point: 44 F (7 C)
Relative Humidity: 93%
Pressure (altimeter): 29.80 in. Hg (1009 hPa)
ob: LEST 252200Z 05005KT 340V100 9999 BKN046 08/07 Q1009 TEMPO 4000 -RA
cycle: 22

Station Type Date Time Source
LEST TAF 2020/11/25 18:27 UTC NOAA

TAF LEST 251700Z 2518/2618 13007KT 9000 SCT010 BKN020 TX13/2614Z TN07/2603Z PROB40
TEMPO 2518/2524 3000 -RA BKN010 PROB30
TEMPO 2518/2524 1500 RA BKN005 PROB40
TEMPO 2600/2606 3000 -DZ BR

Example: see airport list